sensor_id;sensor_type;location;lat;lon;timestamp;P1;durP1;ratioP1;P2;durP2;ratioP2
65375;SDS011;51976;47.332;9.404;2023-04-04T00:01:58;2.80;;;2.20;;
65375;SDS011;51976;47.332;9.404;2023-04-04T00:04:27;2.97;;;1.90;;
65375;SDS011;51976;47.332;9.404;2023-04-04T00:06:53;3.22;;;1.80;;
65375;SDS011;51976;47.332;9.404;2023-04-04T00:09:19;3.38;;;2.15;;
65375;SDS011;51976;47.332;9.404;2023-04-04T00:11:45;5.07;;;2.20;;
65375;SDS011;51976;47.332;9.404;2023-04-04T00:14:11;6.40;;;2.22;;
65375;SDS011;51976;47.332;9.404;2023-04-04T00:16:36;4.53;;;2.20;;
65375;SDS011;51976;47.332;9.404;2023-04-04T00:19:02;3.13;;;2.05;;
65375;SDS011;51976;47.332;9.404;2023-04-04T00:21:27;2.80;;;1.83;;
65375;SDS011;51976;47.332;9.404;2023-04-04T00:23:54;4.88;;;2.28;;
65375;SDS011;51976;47.332;9.404;2023-04-04T00:26:20;3.58;;;2.17;;
65375;SDS011;51976;47.332;9.404;2023-04-04T00:28:46;4.85;;;2.17;;
65375;SDS011;51976;47.332;9.404;2023-04-04T00:31:11;3.90;;;2.55;;
65375;SDS011;51976;47.332;9.404;2023-04-04T00:33:36;4.72;;;2.65;;
65375;SDS011;51976;47.332;9.404;2023-04-04T00:36:02;3.55;;;2.05;;
65375;SDS011;51976;47.332;9.404;2023-04-04T00:38:27;3.45;;;2.25;;
65375;SDS011;51976;47.332;9.404;2023-04-04T00:40:54;4.15;;;2.25;;
65375;SDS011;51976;47.332;9.404;2023-04-04T00:43:20;4.03;;;2.47;;
65375;SDS011;51976;47.332;9.404;2023-04-04T00:45:46;3.33;;;2.13;;
65375;SDS011;51976;47.332;9.404;2023-04-04T00:48:12;4.70;;;2.28;;
65375;SDS011;51976;47.332;9.404;2023-04-04T00:50:39;4.03;;;2.30;;
65375;SDS011;51976;47.332;9.404;2023-04-04T00:53:04;4.28;;;2.20;;
65375;SDS011;51976;47.332;9.404;2023-04-04T00:55:30;5.45;;;2.15;;
65375;SDS011;51976;47.332;9.404;2023-04-04T00:57:56;3.97;;;2.13;;
65375;SDS011;51976;47.332;9.404;2023-04-04T01:00:22;3.22;;;1.98;;
65375;SDS011;51976;47.332;9.404;2023-04-04T01:02:48;5.95;;;2.55;;
65375;SDS011;51976;47.332;9.404;2023-04-04T01:05:14;3.85;;;2.70;;
65375;SDS011;51976;47.332;9.404;2023-04-04T01:07:40;3.08;;;2.30;;
65375;SDS011;51976;47.332;9.404;2023-04-04T01:10:06;3.78;;;2.22;;
65375;SDS011;51976;47.332;9.404;2023-04-04T01:12:32;3.45;;;2.30;;
65375;SDS011;51976;47.332;9.404;2023-04-04T01:14:59;2.85;;;2.13;;
65375;SDS011;51976;47.332;9.404;2023-04-04T01:17:25;3.17;;;1.90;;
65375;SDS011;51976;47.332;9.404;2023-04-04T01:20:10;2.97;;;2.03;;
65375;SDS011;51976;47.332;9.404;2023-04-04T01:22:38;4.68;;;2.30;;
65375;SDS011;51976;47.332;9.404;2023-04-04T01:25:05;3.35;;;2.13;;
65375;SDS011;51976;47.332;9.404;2023-04-04T01:27:31;4.28;;;2.58;;
65375;SDS011;51976;47.332;9.404;2023-04-04T01:29:57;3.33;;;2.00;;
65375;SDS011;51976;47.332;9.404;2023-04-04T01:32:32;3.55;;;2.33;;
65375;SDS011;51976;47.332;9.404;2023-04-04T01:35:17;3.60;;;2.20;;
65375;SDS011;51976;47.332;9.404;2023-04-04T01:37:59;4.30;;;2.30;;
65375;SDS011;51976;47.332;9.404;2023-04-04T01:40:47;3.38;;;1.95;;
65375;SDS011;51976;47.332;9.404;2023-04-04T01:43:13;4.28;;;2.25;;
65375;SDS011;51976;47.332;9.404;2023-04-04T01:45:39;3.25;;;2.20;;
65375;SDS011;51976;47.332;9.404;2023-04-04T01:48:05;5.47;;;2.50;;
65375;SDS011;51976;47.332;9.404;2023-04-04T01:50:32;4.25;;;2.50;;
65375;SDS011;51976;47.332;9.404;2023-04-04T01:52:57;4.10;;;2.35;;
65375;SDS011;51976;47.332;9.404;2023-04-04T01:55:22;5.28;;;2.45;;
65375;SDS011;51976;47.332;9.404;2023-04-04T01:57:48;5.07;;;3.75;;
65375;SDS011;51976;47.332;9.404;2023-04-04T02:00:13;5.75;;;2.55;;
65375;SDS011;51976;47.332;9.404;2023-04-04T02:02:40;5.80;;;2.35;;
65375;SDS011;51976;47.332;9.404;2023-04-04T02:05:06;3.83;;;2.35;;
65375;SDS011;51976;47.332;9.404;2023-04-04T02:07:31;3.75;;;2.53;;
65375;SDS011;51976;47.332;9.404;2023-04-04T02:09:56;4.32;;;2.70;;
65375;SDS011;51976;47.332;9.404;2023-04-04T02:12:22;4.90;;;2.38;;
65375;SDS011;51976;47.332;9.404;2023-04-04T02:14:48;6.57;;;2.50;;
65375;SDS011;51976;47.332;9.404;2023-04-04T02:17:13;3.63;;;2.30;;
65375;SDS011;51976;47.332;9.404;2023-04-04T02:19:38;4.85;;;2.45;;
65375;SDS011;51976;47.332;9.404;2023-04-04T02:22:04;4.03;;;2.42;;
65375;SDS011;51976;47.332;9.404;2023-04-04T02:24:30;3.63;;;2.30;;
65375;SDS011;51976;47.332;9.404;2023-04-04T02:26:56;6.95;;;2.42;;
65375;SDS011;51976;47.332;9.404;2023-04-04T02:29:21;4.60;;;2.55;;
65375;SDS011;51976;47.332;9.404;2023-04-04T02:31:47;7.57;;;2.20;;
65375;SDS011;51976;47.332;9.404;2023-04-04T02:34:12;5.35;;;2.28;;
65375;SDS011;51976;47.332;9.404;2023-04-04T02:36:38;8.77;;;2.83;;
65375;SDS011;51976;47.332;9.404;2023-04-04T02:39:03;3.33;;;2.40;;
65375;SDS011;51976;47.332;9.404;2023-04-04T02:41:29;4.05;;;2.72;;
65375;SDS011;51976;47.332;9.404;2023-04-04T02:43:55;4.22;;;2.47;;
65375;SDS011;51976;47.332;9.404;2023-04-04T02:46:20;3.30;;;2.38;;
65375;SDS011;51976;47.332;9.404;2023-04-04T02:48:46;5.90;;;2.55;;
65375;SDS011;51976;47.332;9.404;2023-04-04T02:51:11;4.55;;;2.42;;
65375;SDS011;51976;47.332;9.404;2023-04-04T02:53:37;3.50;;;2.10;;
65375;SDS011;51976;47.332;9.404;2023-04-04T02:56:02;4.57;;;2.90;;
65375;SDS011;51976;47.332;9.404;2023-04-04T02:58:28;3.97;;;2.70;;
65375;SDS011;51976;47.332;9.404;2023-04-04T03:00:55;4.55;;;2.75;;
65375;SDS011;51976;47.332;9.404;2023-04-04T03:03:20;5.38;;;2.92;;
65375;SDS011;51976;47.332;9.404;2023-04-04T03:05:46;4.00;;;3.03;;
65375;SDS011;51976;47.332;9.404;2023-04-04T03:08:13;4.80;;;2.55;;
65375;SDS011;51976;47.332;9.404;2023-04-04T03:10:39;5.97;;;2.80;;
65375;SDS011;51976;47.332;9.404;2023-04-04T03:13:04;5.05;;;2.60;;
65375;SDS011;51976;47.332;9.404;2023-04-04T03:15:30;6.85;;;2.83;;
65375;SDS011;51976;47.332;9.404;2023-04-04T03:17:55;4.13;;;2.45;;
65375;SDS011;51976;47.332;9.404;2023-04-04T03:20:22;5.07;;;2.50;;
65375;SDS011;51976;47.332;9.404;2023-04-04T03:22:48;4.53;;;2.38;;
65375;SDS011;51976;47.332;9.404;2023-04-04T03:25:13;4.88;;;2.70;;
65375;SDS011;51976;47.332;9.404;2023-04-04T03:27:39;4.25;;;2.55;;
65375;SDS011;51976;47.332;9.404;2023-04-04T03:30:06;6.15;;;3.10;;
65375;SDS011;51976;47.332;9.404;2023-04-04T03:32:32;4.15;;;2.95;;
65375;SDS011;51976;47.332;9.404;2023-04-04T03:34:57;3.78;;;2.70;;
65375;SDS011;51976;47.332;9.404;2023-04-04T03:37:23;3.42;;;2.22;;
65375;SDS011;51976;47.332;9.404;2023-04-04T03:39:48;5.93;;;2.38;;
65375;SDS011;51976;47.332;9.404;2023-04-04T03:42:14;6.15;;;2.30;;
65375;SDS011;51976;47.332;9.404;2023-04-04T03:44:40;4.70;;;2.45;;
65375;SDS011;51976;47.332;9.404;2023-04-04T03:47:06;3.55;;;2.20;;
65375;SDS011;51976;47.332;9.404;2023-04-04T03:49:31;6.05;;;2.53;;
65375;SDS011;51976;47.332;9.404;2023-04-04T03:51:58;4.28;;;2.65;;
65375;SDS011;51976;47.332;9.404;2023-04-04T03:54:23;4.55;;;2.95;;
65375;SDS011;51976;47.332;9.404;2023-04-04T03:56:49;3.78;;;2.38;;
65375;SDS011;51976;47.332;9.404;2023-04-04T03:59:16;5.03;;;2.63;;
65375;SDS011;51976;47.332;9.404;2023-04-04T04:01:41;7.40;;;3.05;;
65375;SDS011;51976;47.332;9.404;2023-04-04T04:04:06;4.68;;;3.15;;
65375;SDS011;51976;47.332;9.404;2023-04-04T04:06:32;4.32;;;3.15;;
65375;SDS011;51976;47.332;9.404;2023-04-04T04:08:57;6.32;;;3.05;;
65375;SDS011;51976;47.332;9.404;2023-04-04T04:11:23;8.73;;;3.92;;
65375;SDS011;51976;47.332;9.404;2023-04-04T04:13:48;11.23;;;4.28;;
65375;SDS011;51976;47.332;9.404;2023-04-04T04:16:13;9.25;;;4.63;;
65375;SDS011;51976;47.332;9.404;2023-04-04T04:18:39;9.40;;;3.72;;
65375;SDS011;51976;47.332;9.404;2023-04-04T04:21:04;7.70;;;4.05;;
65375;SDS011;51976;47.332;9.404;2023-04-04T04:23:30;9.55;;;4.22;;
65375;SDS011;51976;47.332;9.404;2023-04-04T04:25:55;13.60;;;4.88;;
65375;SDS011;51976;47.332;9.404;2023-04-04T04:28:21;9.38;;;4.55;;
65375;SDS011;51976;47.332;9.404;2023-04-04T04:30:48;8.57;;;4.90;;
65375;SDS011;51976;47.332;9.404;2023-04-04T04:33:14;10.63;;;5.55;;
65375;SDS011;51976;47.332;9.404;2023-04-04T04:35:39;9.23;;;4.65;;
65375;SDS011;51976;47.332;9.404;2023-04-04T04:38:05;7.18;;;4.50;;
65375;SDS011;51976;47.332;9.404;2023-04-04T04:40:31;6.38;;;3.92;;
65375;SDS011;51976;47.332;9.404;2023-04-04T04:42:57;8.15;;;4.82;;
65375;SDS011;51976;47.332;9.404;2023-04-04T04:45:23;10.18;;;5.30;;
65375;SDS011;51976;47.332;9.404;2023-04-04T04:47:48;7.25;;;4.72;;
65375;SDS011;51976;47.332;9.404;2023-04-04T04:50:15;7.75;;;4.55;;
65375;SDS011;51976;47.332;9.404;2023-04-04T04:52:40;8.48;;;4.80;;
65375;SDS011;51976;47.332;9.404;2023-04-04T04:55:06;8.05;;;4.22;;
65375;SDS011;51976;47.332;9.404;2023-04-04T04:57:32;8.52;;;4.15;;
65375;SDS011;51976;47.332;9.404;2023-04-04T05:00:00;7.05;;;4.20;;
65375;SDS011;51976;47.332;9.404;2023-04-04T05:02:28;5.25;;;3.70;;
65375;SDS011;51976;47.332;9.404;2023-04-04T05:04:53;6.65;;;3.40;;
65375;SDS011;51976;47.332;9.404;2023-04-04T05:07:19;7.82;;;3.67;;
65375;SDS011;51976;47.332;9.404;2023-04-04T05:09:44;6.00;;;3.83;;
65375;SDS011;51976;47.332;9.404;2023-04-04T05:12:09;9.15;;;3.88;;
65375;SDS011;51976;47.332;9.404;2023-04-04T05:14:35;8.55;;;4.32;;
65375;SDS011;51976;47.332;9.404;2023-04-04T05:17:00;9.57;;;5.65;;
65375;SDS011;51976;47.332;9.404;2023-04-04T05:19:26;8.35;;;4.25;;
65375;SDS011;51976;47.332;9.404;2023-04-04T05:21:51;8.95;;;4.32;;
65375;SDS011;51976;47.332;9.404;2023-04-04T05:24:17;17.80;;;4.47;;
65375;SDS011;51976;47.332;9.404;2023-04-04T05:26:43;11.75;;;4.97;;
65375;SDS011;51976;47.332;9.404;2023-04-04T05:29:08;10.65;;;5.72;;
65375;SDS011;51976;47.332;9.404;2023-04-04T05:31:34;10.18;;;5.40;;
65375;SDS011;51976;47.332;9.404;2023-04-04T05:33:59;14.40;;;8.05;;
65375;SDS011;51976;47.332;9.404;2023-04-04T05:36:32;13.75;;;7.45;;
65375;SDS011;51976;47.332;9.404;2023-04-04T05:38:58;9.18;;;5.63;;
65375;SDS011;51976;47.332;9.404;2023-04-04T05:41:24;8.02;;;5.07;;
65375;SDS011;51976;47.332;9.404;2023-04-04T05:43:49;8.93;;;5.85;;
65375;SDS011;51976;47.332;9.404;2023-04-04T05:46:15;17.65;;;8.13;;
65375;SDS011;51976;47.332;9.404;2023-04-04T05:48:40;13.52;;;8.20;;
65375;SDS011;51976;47.332;9.404;2023-04-04T05:51:05;25.92;;;12.80;;
65375;SDS011;51976;47.332;9.404;2023-04-04T05:53:31;18.52;;;10.65;;
65375;SDS011;51976;47.332;9.404;2023-04-04T05:55:56;18.30;;;9.40;;
65375;SDS011;51976;47.332;9.404;2023-04-04T05:58:22;16.08;;;8.60;;
65375;SDS011;51976;47.332;9.404;2023-04-04T06:00:48;15.48;;;8.75;;
65375;SDS011;51976;47.332;9.404;2023-04-04T06:03:13;14.65;;;7.18;;
65375;SDS011;51976;47.332;9.404;2023-04-04T06:05:41;15.20;;;6.40;;
65375;SDS011;51976;47.332;9.404;2023-04-04T06:08:07;10.13;;;5.93;;
65375;SDS011;51976;47.332;9.404;2023-04-04T06:10:32;9.80;;;6.40;;
65375;SDS011;51976;47.332;9.404;2023-04-04T06:12:57;13.05;;;4.90;;
65375;SDS011;51976;47.332;9.404;2023-04-04T06:15:23;7.78;;;4.88;;
65375;SDS011;51976;47.332;9.404;2023-04-04T06:17:48;7.68;;;5.13;;
65375;SDS011;51976;47.332;9.404;2023-04-04T06:20:14;9.07;;;5.40;;
65375;SDS011;51976;47.332;9.404;2023-04-04T06:22:39;10.43;;;5.32;;
65375;SDS011;51976;47.332;9.404;2023-04-04T06:25:05;13.75;;;4.72;;
65375;SDS011;51976;47.332;9.404;2023-04-04T06:27:31;6.32;;;4.45;;
65375;SDS011;51976;47.332;9.404;2023-04-04T06:29:56;6.93;;;4.13;;
65375;SDS011;51976;47.332;9.404;2023-04-04T06:32:21;10.43;;;4.22;;
65375;SDS011;51976;47.332;9.404;2023-04-04T06:34:47;7.55;;;4.32;;
65375;SDS011;51976;47.332;9.404;2023-04-04T06:37:12;9.63;;;4.82;;
65375;SDS011;51976;47.332;9.404;2023-04-04T06:39:38;5.65;;;4.13;;
65375;SDS011;51976;47.332;9.404;2023-04-04T06:42:03;8.38;;;4.28;;
65375;SDS011;51976;47.332;9.404;2023-04-04T06:44:28;6.35;;;3.88;;
65375;SDS011;51976;47.332;9.404;2023-04-04T06:46:54;7.53;;;4.07;;
65375;SDS011;51976;47.332;9.404;2023-04-04T06:49:20;8.05;;;4.20;;
65375;SDS011;51976;47.332;9.404;2023-04-04T06:51:46;6.93;;;4.38;;
65375;SDS011;51976;47.332;9.404;2023-04-04T06:54:14;8.63;;;5.63;;
65375;SDS011;51976;47.332;9.404;2023-04-04T06:56:40;8.07;;;5.47;;
65375;SDS011;51976;47.332;9.404;2023-04-04T06:59:05;9.07;;;5.35;;
65375;SDS011;51976;47.332;9.404;2023-04-04T07:01:32;5.93;;;4.10;;
65375;SDS011;51976;47.332;9.404;2023-04-04T07:03:58;6.63;;;4.50;;
65375;SDS011;51976;47.332;9.404;2023-04-04T07:06:23;6.95;;;4.38;;
65375;SDS011;51976;47.332;9.404;2023-04-04T07:08:50;10.05;;;5.88;;
65375;SDS011;51976;47.332;9.404;2023-04-04T07:11:16;12.40;;;4.93;;
65375;SDS011;51976;47.332;9.404;2023-04-04T07:13:41;6.00;;;4.10;;
65375;SDS011;51976;47.332;9.404;2023-04-04T07:16:07;6.32;;;4.47;;
65375;SDS011;51976;47.332;9.404;2023-04-04T07:18:32;5.97;;;4.00;;
65375;SDS011;51976;47.332;9.404;2023-04-04T07:20:57;7.63;;;4.28;;
65375;SDS011;51976;47.332;9.404;2023-04-04T07:23:23;6.63;;;3.92;;
65375;SDS011;51976;47.332;9.404;2023-04-04T07:25:48;10.30;;;4.00;;
65375;SDS011;51976;47.332;9.404;2023-04-04T07:28:14;6.28;;;4.00;;
65375;SDS011;51976;47.332;9.404;2023-04-04T07:30:39;7.05;;;4.07;;
65375;SDS011;51976;47.332;9.404;2023-04-04T07:33:05;5.95;;;3.40;;
65375;SDS011;51976;47.332;9.404;2023-04-04T07:35:32;9.07;;;4.47;;
65375;SDS011;51976;47.332;9.404;2023-04-04T07:37:58;13.85;;;6.72;;
65375;SDS011;51976;47.332;9.404;2023-04-04T07:40:24;8.65;;;4.78;;
65375;SDS011;51976;47.332;9.404;2023-04-04T07:42:49;9.10;;;4.93;;
65375;SDS011;51976;47.332;9.404;2023-04-04T07:45:16;8.35;;;4.97;;
65375;SDS011;51976;47.332;9.404;2023-04-04T07:47:44;8.93;;;5.40;;
65375;SDS011;51976;47.332;9.404;2023-04-04T07:50:13;9.27;;;5.82;;
65375;SDS011;51976;47.332;9.404;2023-04-04T07:52:39;9.75;;;5.55;;
65375;SDS011;51976;47.332;9.404;2023-04-04T07:55:05;8.57;;;5.10;;
65375;SDS011;51976;47.332;9.404;2023-04-04T07:57:32;9.63;;;4.43;;
65375;SDS011;51976;47.332;9.404;2023-04-04T07:59:58;8.60;;;4.95;;
65375;SDS011;51976;47.332;9.404;2023-04-04T08:02:23;8.85;;;4.72;;
65375;SDS011;51976;47.332;9.404;2023-04-04T08:04:49;11.75;;;6.53;;
65375;SDS011;51976;47.332;9.404;2023-04-04T08:07:14;9.88;;;5.75;;
65375;SDS011;51976;47.332;9.404;2023-04-04T08:09:40;7.47;;;4.93;;
65375;SDS011;51976;47.332;9.404;2023-04-04T08:12:06;6.45;;;4.00;;
65375;SDS011;51976;47.332;9.404;2023-04-04T08:14:32;5.25;;;3.55;;
65375;SDS011;51976;47.332;9.404;2023-04-04T08:16:58;7.63;;;3.90;;
65375;SDS011;51976;47.332;9.404;2023-04-04T08:19:23;11.77;;;5.45;;
65375;SDS011;51976;47.332;9.404;2023-04-04T08:21:49;5.32;;;3.50;;
65375;SDS011;51976;47.332;9.404;2023-04-04T08:24:15;5.35;;;3.45;;
65375;SDS011;51976;47.332;9.404;2023-04-04T08:26:40;7.68;;;5.30;;
65375;SDS011;51976;47.332;9.404;2023-04-04T08:29:06;6.90;;;4.68;;
65375;SDS011;51976;47.332;9.404;2023-04-04T08:31:31;9.38;;;5.40;;
65375;SDS011;51976;47.332;9.404;2023-04-04T08:33:57;10.77;;;5.85;;
65375;SDS011;51976;47.332;9.404;2023-04-04T08:36:22;10.65;;;6.20;;
65375;SDS011;51976;47.332;9.404;2023-04-04T08:38:48;8.90;;;5.28;;
65375;SDS011;51976;47.332;9.404;2023-04-04T08:41:13;7.82;;;5.35;;
65375;SDS011;51976;47.332;9.404;2023-04-04T08:43:42;8.75;;;6.00;;
65375;SDS011;51976;47.332;9.404;2023-04-04T08:46:10;6.00;;;3.92;;
65375;SDS011;51976;47.332;9.404;2023-04-04T08:48:36;7.45;;;4.43;;
65375;SDS011;51976;47.332;9.404;2023-04-04T08:51:03;9.77;;;5.03;;
65375;SDS011;51976;47.332;9.404;2023-04-04T08:53:29;7.30;;;4.10;;
65375;SDS011;51976;47.332;9.404;2023-04-04T08:55:57;9.52;;;5.53;;
65375;SDS011;51976;47.332;9.404;2023-04-04T08:58:24;6.68;;;4.78;;
65375;SDS011;51976;47.332;9.404;2023-04-04T09:00:53;4.50;;;3.55;;
65375;SDS011;51976;47.332;9.404;2023-04-04T09:03:26;10.25;;;3.85;;
65375;SDS011;51976;47.332;9.404;2023-04-04T09:05:54;3.90;;;3.28;;
65375;SDS011;51976;47.332;9.404;2023-04-04T09:08:20;5.05;;;3.10;;
65375;SDS011;51976;47.332;9.404;2023-04-04T09:10:52;9.55;;;5.72;;
65375;SDS011;51976;47.332;9.404;2023-04-04T09:13:18;9.30;;;5.00;;
65375;SDS011;51976;47.332;9.404;2023-04-04T09:15:47;6.70;;;3.72;;
65375;SDS011;51976;47.332;9.404;2023-04-04T09:18:15;7.18;;;4.43;;
65375;SDS011;51976;47.332;9.404;2023-04-04T09:20:44;8.07;;;3.67;;
65375;SDS011;51976;47.332;9.404;2023-04-04T09:23:13;4.75;;;3.30;;
65375;SDS011;51976;47.332;9.404;2023-04-04T09:25:48;4.72;;;3.10;;
65375;SDS011;51976;47.332;9.404;2023-04-04T09:28:15;4.63;;;3.15;;
65375;SDS011;51976;47.332;9.404;2023-04-04T09:30:41;4.43;;;3.45;;
65375;SDS011;51976;47.332;9.404;2023-04-04T09:33:09;4.07;;;3.00;;
65375;SDS011;51976;47.332;9.404;2023-04-04T09:35:35;4.43;;;3.13;;
65375;SDS011;51976;47.332;9.404;2023-04-04T09:38:05;4.28;;;3.25;;
65375;SDS011;51976;47.332;9.404;2023-04-04T09:40:30;5.88;;;3.33;;
65375;SDS011;51976;47.332;9.404;2023-04-04T09:42:59;5.38;;;3.13;;
65375;SDS011;51976;47.332;9.404;2023-04-04T09:45:25;6.35;;;2.92;;
65375;SDS011;51976;47.332;9.404;2023-04-04T09:47:51;5.80;;;3.25;;
65375;SDS011;51976;47.332;9.404;2023-04-04T09:50:20;3.10;;;2.53;;
65375;SDS011;51976;47.332;9.404;2023-04-04T09:52:48;3.50;;;2.80;;
65375;SDS011;51976;47.332;9.404;2023-04-04T09:55:13;5.07;;;2.72;;
65375;SDS011;51976;47.332;9.404;2023-04-04T09:57:39;3.83;;;2.92;;
65375;SDS011;51976;47.332;9.404;2023-04-04T10:00:05;4.18;;;2.63;;
65375;SDS011;51976;47.332;9.404;2023-04-04T10:02:33;4.35;;;3.08;;
65375;SDS011;51976;47.332;9.404;2023-04-04T10:05:04;8.00;;;3.70;;
65375;SDS011;51976;47.332;9.404;2023-04-04T10:07:34;7.18;;;3.63;;
65375;SDS011;51976;47.332;9.404;2023-04-04T10:10:03;5.80;;;3.30;;
65375;SDS011;51976;47.332;9.404;2023-04-04T10:12:30;4.47;;;3.08;;
65375;SDS011;51976;47.332;9.404;2023-04-04T10:14:57;5.28;;;3.30;;
65375;SDS011;51976;47.332;9.404;2023-04-04T10:17:24;7.88;;;3.95;;
65375;SDS011;51976;47.332;9.404;2023-04-04T10:19:55;4.85;;;3.70;;
65375;SDS011;51976;47.332;9.404;2023-04-04T10:22:23;4.40;;;3.20;;
65375;SDS011;51976;47.332;9.404;2023-04-04T10:24:50;4.78;;;3.17;;
65375;SDS011;51976;47.332;9.404;2023-04-04T10:27:17;6.95;;;3.40;;
65375;SDS011;51976;47.332;9.404;2023-04-04T10:29:43;4.97;;;3.15;;
65375;SDS011;51976;47.332;9.404;2023-04-04T10:32:09;6.50;;;3.60;;
65375;SDS011;51976;47.332;9.404;2023-04-04T10:34:42;4.85;;;2.85;;
65375;SDS011;51976;47.332;9.404;2023-04-04T10:37:14;4.07;;;2.92;;
65375;SDS011;51976;47.332;9.404;2023-04-04T10:39:50;6.57;;;2.90;;
65375;SDS011;51976;47.332;9.404;2023-04-04T10:42:19;3.88;;;2.75;;
65375;SDS011;51976;47.332;9.404;2023-04-04T10:44:47;7.18;;;2.80;;
65375;SDS011;51976;47.332;9.404;2023-04-04T10:47:16;4.55;;;2.70;;
65375;SDS011;51976;47.332;9.404;2023-04-04T10:49:46;5.72;;;3.55;;
65375;SDS011;51976;47.332;9.404;2023-04-04T10:52:13;5.95;;;3.33;;
65375;SDS011;51976;47.332;9.404;2023-04-04T10:54:41;9.75;;;5.03;;
65375;SDS011;51976;47.332;9.404;2023-04-04T10:57:08;7.40;;;4.57;;
65375;SDS011;51976;47.332;9.404;2023-04-04T10:59:54;5.15;;;3.05;;
65375;SDS011;51976;47.332;9.404;2023-04-04T11:02:45;6.22;;;3.30;;
65375;SDS011;51976;47.332;9.404;2023-04-04T11:05:16;6.10;;;3.90;;
65375;SDS011;51976;47.332;9.404;2023-04-04T11:07:45;4.93;;;3.10;;
65375;SDS011;51976;47.332;9.404;2023-04-04T11:10:15;5.03;;;2.97;;
65375;SDS011;51976;47.332;9.404;2023-04-04T11:12:45;7.13;;;3.78;;
65375;SDS011;51976;47.332;9.404;2023-04-04T11:15:20;4.05;;;3.08;;
65375;SDS011;51976;47.332;9.404;2023-04-04T11:17:52;4.35;;;2.92;;
65375;SDS011;51976;47.332;9.404;2023-04-04T11:20:21;5.60;;;3.20;;
65375;SDS011;51976;47.332;9.404;2023-04-04T11:22:49;4.00;;;2.50;;
65375;SDS011;51976;47.332;9.404;2023-04-04T11:25:33;5.38;;;2.60;;
65375;SDS011;51976;47.332;9.404;2023-04-04T11:28:05;5.72;;;2.97;;
65375;SDS011;51976;47.332;9.404;2023-04-04T11:30:39;4.30;;;2.80;;
65375;SDS011;51976;47.332;9.404;2023-04-04T11:33:25;4.93;;;2.60;;
65375;SDS011;51976;47.332;9.404;2023-04-04T11:35:51;7.07;;;3.65;;
65375;SDS011;51976;47.332;9.404;2023-04-04T11:38:17;7.28;;;3.13;;
65375;SDS011;51976;47.332;9.404;2023-04-04T11:40:51;5.93;;;3.85;;
65375;SDS011;51976;47.332;9.404;2023-04-04T11:43:18;5.35;;;3.50;;
65375;SDS011;51976;47.332;9.404;2023-04-04T11:45:44;5.20;;;3.67;;
65375;SDS011;51976;47.332;9.404;2023-04-04T11:48:10;5.55;;;3.88;;
65375;SDS011;51976;47.332;9.404;2023-04-04T11:50:39;5.93;;;3.42;;
65375;SDS011;51976;47.332;9.404;2023-04-04T11:53:05;6.55;;;3.85;;
65375;SDS011;51976;47.332;9.404;2023-04-04T11:55:37;5.07;;;3.30;;
65375;SDS011;51976;47.332;9.404;2023-04-04T11:58:09;5.82;;;3.78;;
65375;SDS011;51976;47.332;9.404;2023-04-04T12:00:36;8.00;;;3.28;;
65375;SDS011;51976;47.332;9.404;2023-04-04T12:03:06;6.75;;;3.28;;
65375;SDS011;51976;47.332;9.404;2023-04-04T12:05:35;7.70;;;3.80;;
65375;SDS011;51976;47.332;9.404;2023-04-04T12:08:02;5.03;;;2.70;;
65375;SDS011;51976;47.332;9.404;2023-04-04T12:10:33;5.03;;;2.40;;
65375;SDS011;51976;47.332;9.404;2023-04-04T12:12:59;4.47;;;3.22;;
65375;SDS011;51976;47.332;9.404;2023-04-04T12:15:28;5.55;;;3.00;;
65375;SDS011;51976;47.332;9.404;2023-04-04T12:17:53;3.85;;;2.38;;
65375;SDS011;51976;47.332;9.404;2023-04-04T12:20:22;3.50;;;2.47;;
65375;SDS011;51976;47.332;9.404;2023-04-04T12:22:48;6.25;;;4.00;;
65375;SDS011;51976;47.332;9.404;2023-04-04T12:25:15;3.05;;;2.50;;
65375;SDS011;51976;47.332;9.404;2023-04-04T12:27:41;6.05;;;3.10;;
65375;SDS011;51976;47.332;9.404;2023-04-04T12:30:06;5.20;;;2.67;;
65375;SDS011;51976;47.332;9.404;2023-04-04T12:32:39;5.18;;;2.83;;
65375;SDS011;51976;47.332;9.404;2023-04-04T12:35:05;4.72;;;3.20;;
65375;SDS011;51976;47.332;9.404;2023-04-04T12:37:31;3.60;;;2.38;;
65375;SDS011;51976;47.332;9.404;2023-04-04T12:39:57;7.45;;;2.88;;
65375;SDS011;51976;47.332;9.404;2023-04-04T12:42:23;4.22;;;2.63;;
65375;SDS011;51976;47.332;9.404;2023-04-04T12:44:49;5.35;;;3.10;;
65375;SDS011;51976;47.332;9.404;2023-04-04T12:47:16;6.53;;;3.10;;
65375;SDS011;51976;47.332;9.404;2023-04-04T12:49:45;6.32;;;2.38;;
65375;SDS011;51976;47.332;9.404;2023-04-04T12:52:17;4.70;;;2.60;;
65375;SDS011;51976;47.332;9.404;2023-04-04T12:54:48;7.63;;;2.78;;
65375;SDS011;51976;47.332;9.404;2023-04-04T12:57:17;4.53;;;2.63;;
65375;SDS011;51976;47.332;9.404;2023-04-04T12:59:45;4.55;;;2.35;;
65375;SDS011;51976;47.332;9.404;2023-04-04T13:02:15;3.78;;;2.42;;
65375;SDS011;51976;47.332;9.404;2023-04-04T13:04:45;5.63;;;2.40;;
65375;SDS011;51976;47.332;9.404;2023-04-04T13:07:21;2.83;;;1.95;;
65375;SDS011;51976;47.332;9.404;2023-04-04T13:09:55;4.10;;;2.90;;
65375;SDS011;51976;47.332;9.404;2023-04-04T13:12:23;4.30;;;2.38;;
65375;SDS011;51976;47.332;9.404;2023-04-04T13:14:55;4.55;;;2.78;;
65375;SDS011;51976;47.332;9.404;2023-04-04T13:17:24;4.07;;;2.83;;
65375;SDS011;51976;47.332;9.404;2023-04-04T13:19:51;4.40;;;2.80;;
65375;SDS011;51976;47.332;9.404;2023-04-04T13:22:17;5.25;;;3.20;;
65375;SDS011;51976;47.332;9.404;2023-04-04T13:24:42;7.85;;;3.85;;
65375;SDS011;51976;47.332;9.404;2023-04-04T13:27:07;5.65;;;2.95;;
65375;SDS011;51976;47.332;9.404;2023-04-04T13:29:33;4.05;;;2.67;;
65375;SDS011;51976;47.332;9.404;2023-04-04T13:31:58;5.43;;;3.47;;
65375;SDS011;51976;47.332;9.404;2023-04-04T13:34:25;3.03;;;2.25;;
65375;SDS011;51976;47.332;9.404;2023-04-04T13:36:51;3.83;;;2.13;;
65375;SDS011;51976;47.332;9.404;2023-04-04T13:39:17;5.15;;;2.30;;
65375;SDS011;51976;47.332;9.404;2023-04-04T13:41:42;3.20;;;2.22;;
65375;SDS011;51976;47.332;9.404;2023-04-04T13:44:07;3.45;;;2.05;;
65375;SDS011;51976;47.332;9.404;2023-04-04T13:46:33;3.55;;;2.50;;
65375;SDS011;51976;47.332;9.404;2023-04-04T13:48:58;4.32;;;2.20;;
65375;SDS011;51976;47.332;9.404;2023-04-04T13:51:25;4.20;;;2.67;;
65375;SDS011;51976;47.332;9.404;2023-04-04T13:53:51;4.32;;;2.60;;
65375;SDS011;51976;47.332;9.404;2023-04-04T13:56:16;5.32;;;2.40;;
65375;SDS011;51976;47.332;9.404;2023-04-04T13:58:42;3.42;;;2.30;;
65375;SDS011;51976;47.332;9.404;2023-04-04T14:01:07;3.20;;;2.13;;
65375;SDS011;51976;47.332;9.404;2023-04-04T14:03:33;3.03;;;2.42;;
65375;SDS011;51976;47.332;9.404;2023-04-04T14:05:59;3.55;;;2.30;;
65375;SDS011;51976;47.332;9.404;2023-04-04T14:08:24;4.93;;;2.75;;
65375;SDS011;51976;47.332;9.404;2023-04-04T14:10:50;4.20;;;2.67;;
65375;SDS011;51976;47.332;9.404;2023-04-04T14:13:16;2.72;;;2.17;;
65375;SDS011;51976;47.332;9.404;2023-04-04T14:15:41;3.45;;;1.92;;
65375;SDS011;51976;47.332;9.404;2023-04-04T14:18:07;3.50;;;2.17;;
65375;SDS011;51976;47.332;9.404;2023-04-04T14:20:32;4.95;;;2.88;;
65375;SDS011;51976;47.332;9.404;2023-04-04T14:22:57;6.60;;;2.58;;
65375;SDS011;51976;47.332;9.404;2023-04-04T14:25:23;4.25;;;2.50;;
65375;SDS011;51976;47.332;9.404;2023-04-04T14:27:48;4.78;;;2.70;;
65375;SDS011;51976;47.332;9.404;2023-04-04T14:30:14;4.15;;;2.50;;
65375;SDS011;51976;47.332;9.404;2023-04-04T14:32:40;3.53;;;2.35;;
65375;SDS011;51976;47.332;9.404;2023-04-04T14:35:05;3.05;;;2.47;;
65375;SDS011;51976;47.332;9.404;2023-04-04T14:37:30;3.20;;;2.50;;
65375;SDS011;51976;47.332;9.404;2023-04-04T14:39:56;5.18;;;2.88;;
65375;SDS011;51976;47.332;9.404;2023-04-04T14:42:21;6.63;;;2.75;;
65375;SDS011;51976;47.332;9.404;2023-04-04T14:44:47;3.75;;;2.55;;